AirNav   Phillips 66 Aviation Fuel
 
 1215 users online  

UT44 Davis Hospital & Medical Center Heliport
Layton, Utah, USA

GOING TO LAYTON?


FAA INFORMATION EFFECTIVE 01 FEBRUARY 2018

Location

FAA Identifier: UT44
Lat/Long: 41-05-30.5900N / 111-59-45.3500W
41-05.509833N / 111-59.755833W
41.0918306 / -111.9959306
(estimated)
Elevation: 4300 ft. / 1311 m (estimated)
Variation: 15E (1985)
Time zone: UTC -7 (UTC -6 during Daylight Saving Time)
Zip code: 84041

Heliport Operations

Heliport use: Private use, MEDICAL USE.
Activation date: 03/1981
Control tower: no
ARTCC: SALT LAKE CITY CENTER
FSS: CEDAR CITY FLIGHT SERVICE STATION
Attendance: UNATNDD
Wind indicator: lighted
Segmented circle: no

Heliport Communications

WX ASOS at OGD (6 nm N): PHONE 801-622-5600
WX ASOS at SLC (18 nm S): PHONE 801-328-3567

Nearby radio navigation aids

VOR radial/distance  VOR name  Freq  Var
OGDr136/9.2OGDEN VORTAC115.7014E
TCHr341/14.5WASATCH VORTAC116.8016E

Heliport Services

Runway Information

Helipad H1

Dimensions: 75 x 75 ft. / 23 x 23 m
Surface: concrete
Runway edge lights: RY H1 MKD WITH 8 GREEN & 8 FLOOD LGTS.
Latitude: 41-05.509833N
Longitude: 111-59.755833W
Elevation: 4300.0 ft.
Traffic pattern: leftleft

Heliport Ownership and Management from official FAA records

Ownership: Privately-owned
Owner: DAVIS HOSP & MED CENTER
1600 WEST ANTELOPE DRIVE
LAYTON, UT 84041
Phone 801-807-1000
Manager: MIKE JENSEN
1600 WEST ANTELOPE DRIVE
LAYTON, UT 84041
Phone (801) 807-7006

Heliport Operational Statistics

Aircraft based on the field: 1
Helicopters: 1
    

Instrument Procedures

There are no published instrument procedures at UT44.

Some nearby airports with instrument procedures:

KHIF - Hill Air Force Base (2 nm NE)
KOGD - Ogden-Hinckley Airport (6 nm N)
KSLC - Salt Lake City International Airport (18 nm S)
KBMC - Brigham City Airport (28 nm N)
U42 - South Valley Regional Airport (28 nm S)
 
Loc | Ops | Rwys | IFR | FBO | Links
Com | Nav | Svcs | Stats | Notes

AirNav Hotels Sweepstakes
 
Area around UT44 (Davis Hospital & Medical Center Heliport)
 
Road maps at: MapQuest Bing Google
 
Aerial photo
No photo
 
Sectional chart

 
Airport distance calculator
Flying to Davis Hospital & Medical Center Heliport? Find the distance to fly.

From to UT44

Sunrise and sunset
Times for 21-Feb-2018
 Local
(UTC-7)
 Zulu
(UTC)
Morning civil twilight06:4713:47
Sunrise07:1514:15
Sunset18:0801:08
Evening civil twilight18:3601:36

Current date and time
Zulu (UTC)  21-Feb-2018 23:07:28
Local (UTC-7)  21-Feb-2018 16:07:28
 
METAR
KHIF 
2nm NE 
212258Z AUTO 00000KT 10SM CLR M02/M14 A3007 RMK AO2 SLPNO T10241139
KOGD 
7nm N 
212253Z 00000KT 10SM CLR M01/M13 A3008 RMK AO2 SLP220 T10061133
KSLC 
19nm S 
212254Z 35006KT 10SM FEW080 FEW220 00/M11 A3010 RMK AO2 SLP216 T00001106
TAF
KHIF 
2nm NE 
212139Z 2121/2303 23009KT 9999 FEW050 FEW180 QNH3005INS BECMG 2202/2203 12009KT 9999 SCT070 BKN120 QNH2993INS BECMG 2210/2211 12012G20KT 9999 BKN100 QNH2990INS BECMG 2216/2217 18012G20KT 9999 BKN040 610405 QNH2987INS BECMG 2223/2224 18009KT 9999 BKN030 610303 QNH2987INS TXM02/2123Z TNM09/2209Z
KOGD 
7nm N 
211729Z 2118/2218 17008KT P6SM FEW070 SCT120 FM211900 24005KT P6SM SCT070 BKN120 FM220200 17007KT P6SM SCT070 BKN120 FM221500 16008KT P6SM SCT050 BKN080
KSLC 
19nm S 
212050Z 2121/2224 33008KT P6SM SCT070 BKN120 FM220300 16006KT P6SM SCT070 BKN120 FM221700 16012KT P6SM SCT050 BKN090 FM222000 19017G20KT P6SM SCT060 BKN090
NOTAMs
Click for the latest NOTAMs
NOTAMs are issued by the DoD/FAA and will open in a separate window not controlled by AirNav.

 

 
 

Would you like to see your business listed on this page?

 If your business provides an interesting product or service to pilots, flight crews, aircraft, or users of the Davis Hospital & Medical Center Heliport, you should consider listing it here.  To start the listing process, click on the button below
 
Add a business
 

Other Pages about Davis Hospital & Medical Center Heliport

Update a link
 
Copyright © AirNav, LLC. All rights reserved. Privacy Policy  Contact